createdAt,value
2022-09-01T00:01:14.789Z,51.30
2022-09-01T00:03:42.804Z,51.60
2022-09-01T00:06:10.198Z,51.40
2022-09-01T00:08:36.804Z,51.70
2022-09-01T00:11:03.400Z,52.40
2022-09-01T00:13:33.190Z,52.20
2022-09-01T00:16:00.709Z,52.40
2022-09-01T00:18:27.315Z,53.00
2022-09-01T00:20:55.800Z,53.30
2022-09-01T00:23:22.387Z,53.00
2022-09-01T00:25:48.969Z,53.50
2022-09-01T00:28:15.539Z,55.10
2022-09-01T00:30:42.217Z,54.50
2022-09-01T00:33:08.869Z,54.80
2022-09-01T00:35:37.356Z,54.60
2022-09-01T00:38:04.330Z,53.20
2022-09-01T00:40:30.983Z,53.60
2022-09-01T00:42:57.575Z,52.60
2022-09-01T00:45:24.180Z,51.30
2022-09-01T00:47:50.796Z,51.00
2022-09-01T00:50:18.285Z,51.10
2022-09-01T00:52:47.702Z,50.60
2022-09-01T00:55:25.327Z,51.40
2022-09-01T00:57:51.967Z,51.60
2022-09-01T01:00:20.365Z,50.80
2022-09-01T01:02:47.938Z,51.40
2022-09-01T01:05:15.490Z,51.50
2022-09-01T01:07:47.547Z,51.60
2022-09-01T01:10:15.851Z,51.30
2022-09-01T01:12:43.787Z,51.60
2022-09-01T01:15:14.566Z,52.20
2022-09-01T01:17:41.235Z,51.60
2022-09-01T01:20:27.534Z,51.70
2022-09-01T01:23:03.023Z,52.90
2022-09-01T01:25:32.349Z,51.50
2022-09-01T01:28:13.911Z,51.30
2022-09-01T01:30:45.055Z,50.90
2022-09-01T01:33:12.131Z,52.70
2022-09-01T01:35:40.001Z,52.20
2022-09-01T01:38:07.871Z,51.40
2022-09-01T01:40:34.810Z,51.50
2022-09-01T01:43:01.922Z,51.40
2022-09-01T01:45:28.617Z,51.50
2022-09-01T01:47:56.422Z,52.50
2022-09-01T01:50:30.029Z,53.00
2022-09-01T01:52:59.670Z,53.20
2022-09-01T01:55:28.922Z,51.40
2022-09-01T01:57:56.278Z,53.30
2022-09-01T02:00:30.622Z,53.20
2022-09-01T02:02:57.867Z,54.50
2022-09-01T02:05:26.444Z,54.00
2022-09-01T02:07:56.044Z,54.10
2022-09-01T02:10:24.003Z,54.80
2022-09-01T02:12:50.858Z,55.00
2022-09-01T02:15:17.477Z,55.70
2022-09-01T02:17:44.966Z,56.70
2022-09-01T02:20:11.727Z,56.50
2022-09-01T02:22:39.461Z,56.50
2022-09-01T02:25:06.373Z,56.50
2022-09-01T02:27:35.405Z,56.50
2022-09-01T02:30:02.546Z,56.50
2022-09-01T02:32:29.161Z,56.50
2022-09-01T02:35:01.140Z,56.50
2022-09-01T02:37:28.020Z,56.50
2022-09-01T02:39:57.610Z,58.20
2022-09-01T02:42:27.507Z,58.70
2022-09-01T02:44:55.077Z,58.80
2022-09-01T02:47:23.222Z,59.70
2022-09-01T02:49:51.176Z,59.30
2022-09-01T02:52:20.622Z,59.00
2022-09-01T02:54:49.638Z,58.80
2022-09-01T02:57:17.326Z,59.50
2022-09-01T02:59:44.092Z,57.50
2022-09-01T03:02:11.190Z,57.20
2022-09-01T03:04:38.907Z,56.90
2022-09-01T03:07:05.912Z,57.20
2022-09-01T03:09:35.518Z,56.40
2022-09-01T03:12:02.618Z,56.40
2022-09-01T03:14:29.961Z,56.40
2022-09-01T03:16:57.614Z,56.30
2022-09-01T03:19:24.326Z,56.30
2022-09-01T03:21:50.902Z,56.40
2022-09-01T03:24:17.825Z,56.30
2022-09-01T03:26:45.937Z,56.20
2022-09-01T03:29:16.872Z,56.30
2022-09-01T03:31:45.497Z,56.20
2022-09-01T03:34:12.551Z,56.30
2022-09-01T03:36:39.840Z,56.20
2022-09-01T03:39:13.401Z,56.10
2022-09-01T03:41:43.509Z,56.10
2022-09-01T03:44:13.790Z,57.90
2022-09-01T03:46:40.991Z,58.20
2022-09-01T03:49:08.031Z,58.00
2022-09-01T03:51:35.246Z,57.70
2022-09-01T03:54:02.094Z,57.70
2022-09-01T03:56:29.564Z,58.20
2022-09-01T03:58:57.430Z,58.90
2022-09-01T04:01:28.430Z,59.90
2022-09-01T04:03:55.346Z,59.80
2022-09-01T04:06:24.054Z,59.40
2022-09-01T04:08:53.869Z,59.50
2022-09-01T04:11:24.115Z,60.00
2022-09-01T04:13:51.547Z,60.50
2022-09-01T04:16:39.598Z,61.90
2022-09-01T04:19:16.021Z,60.70
2022-09-01T04:21:43.919Z,60.70
2022-09-01T04:24:12.269Z,59.50
2022-09-01T04:26:39.194Z,59.60
2022-09-01T04:29:06.842Z,60.20
2022-09-01T04:31:33.527Z,60.20
2022-09-01T04:34:00.132Z,60.60
2022-09-01T04:36:30.653Z,60.00
2022-09-01T04:39:01.220Z,58.80
2022-09-01T04:41:30.985Z,59.50
2022-09-01T04:43:58.825Z,60.10
2022-09-01T04:46:28.434Z,60.50
2022-09-01T04:48:56.019Z,60.60
2022-09-01T04:51:24.207Z,61.20
2022-09-01T04:53:50.826Z,61.50
2022-09-01T04:56:19.451Z,61.10
2022-09-01T04:58:49.763Z,60.30
2022-09-01T05:01:17.677Z,60.80
2022-09-01T05:03:45.353Z,60.70
2022-09-01T05:06:15.666Z,60.50
2022-09-01T05:08:43.407Z,61.50
2022-09-01T05:11:16.844Z,60.70
2022-09-01T05:13:45.417Z,60.20
2022-09-01T05:16:14.965Z,60.60
2022-09-01T05:18:45.051Z,60.40
2022-09-01T05:21:11.785Z,59.30
2022-09-01T05:23:40.554Z,58.30
2022-09-01T05:26:16.836Z,57.90
2022-09-01T05:28:44.311Z,56.00
2022-09-01T05:31:11.006Z,53.90
2022-09-01T05:33:39.802Z,51.00
2022-09-01T05:36:08.542Z,47.60
2022-09-01T05:38:35.170Z,45.90
2022-09-01T05:41:03.227Z,43.50
2022-09-01T05:43:30.928Z,40.60
2022-09-01T05:46:06.558Z,38.80
2022-09-01T05:48:40.173Z,38.40
2022-09-01T05:51:22.442Z,38.30
2022-09-01T05:53:58.750Z,35.30
2022-09-01T05:56:26.715Z,30.50
2022-09-01T06:01:43.161Z,26.60
2022-09-01T06:04:13.612Z,23.30
2022-09-01T06:07:04.110Z,23.30
2022-09-01T06:09:31.039Z,20.20
2022-09-01T06:11:57.680Z,19.00
2022-09-01T06:14:24.650Z,17.10
2022-09-01T06:16:54.145Z,14.50
2022-09-01T06:19:20.934Z,12.70
2022-09-01T06:21:48.913Z,8.00
2022-09-01T06:24:15.528Z,8.10
2022-09-01T06:26:42.238Z,5.80
2022-09-01T06:29:10.105Z,5.30
2022-09-01T06:31:39.336Z,3.40
2022-09-01T06:34:07.682Z,2.10
2022-09-01T06:36:36.576Z,2.60
2022-09-01T06:39:04.010Z,3.50
2022-09-01T06:41:31.471Z,3.50
2022-09-01T06:43:58.107Z,2.60
2022-09-01T06:46:29.469Z,1.40
2022-09-01T06:48:58.828Z,1.80
2022-09-01T06:51:28.556Z,1.70
2022-09-01T06:53:59.331Z,2.10
2022-09-01T06:56:31.924Z,1.10
2022-09-01T06:58:59.349Z,1.00
2022-09-01T07:01:27.658Z,1.00
2022-09-01T07:03:55.504Z,1.00
2022-09-01T07:09:29.612Z,1.00
2022-09-01T07:12:37.358Z,1.00
2022-09-01T07:17:39.431Z,1.00
2022-09-01T07:23:09.183Z,1.00
2022-09-01T07:26:04.508Z,1.00
2022-09-01T07:28:36.066Z,1.00
2022-09-01T07:33:54.372Z,1.00
2022-09-01T07:36:29.059Z,1.00
2022-09-01T07:44:29.444Z,1.00
2022-09-01T07:52:31.423Z,1.00
2022-09-01T07:54:58.112Z,1.00
2022-09-01T07:57:24.690Z,1.00
2022-09-01T07:59:55.413Z,1.00
2022-09-01T08:02:22.126Z,1.00
2022-09-01T08:04:49.148Z,1.00
2022-09-01T08:07:16.315Z,1.00
2022-09-01T08:09:44.267Z,1.00
2022-09-01T08:12:11.115Z,1.00
2022-09-01T08:14:38.002Z,1.00
2022-09-01T08:19:53.420Z,1.00
2022-09-01T08:22:24.313Z,1.00
2022-09-01T08:24:51.990Z,1.00
2022-09-01T08:27:18.734Z,1.00
2022-09-01T08:29:45.328Z,1.00
2022-09-01T08:32:12.109Z,1.00
2022-09-01T08:34:38.735Z,1.00
2022-09-01T08:37:05.539Z,1.00
2022-09-01T08:39:32.841Z,1.00
2022-09-01T08:41:59.442Z,1.00
2022-09-01T08:44:33.213Z,1.00
2022-09-01T08:47:03.520Z,1.00
2022-09-01T08:49:30.857Z,1.00
2022-09-01T08:51:59.057Z,1.00
2022-09-01T08:54:35.044Z,1.00
2022-09-01T08:57:04.885Z,1.00
2022-09-01T08:59:31.489Z,1.00
2022-09-01T09:02:08.099Z,1.00
2022-09-01T09:04:47.393Z,1.00
2022-09-01T09:07:20.152Z,1.00
2022-09-01T09:09:54.029Z,1.00
2022-09-01T09:12:28.913Z,1.00
2022-09-01T09:15:21.876Z,1.00
2022-09-01T09:17:58.915Z,1.00
2022-09-01T09:20:27.312Z,1.00
2022-09-01T09:22:54.562Z,1.00
2022-09-01T09:25:21.383Z,1.00
2022-09-01T09:27:48.724Z,1.00
2022-09-01T09:30:26.990Z,1.00
2022-09-01T09:35:41.901Z,1.00
2022-09-01T09:38:22.791Z,1.00
2022-09-01T09:43:49.343Z,1.00
2022-09-01T09:46:35.951Z,1.00
2022-09-01T09:49:35.921Z,1.00
2022-09-01T09:52:10.324Z,1.00
2022-09-01T09:54:55.889Z,1.00
2022-09-01T09:57:22.605Z,1.00
2022-09-01T10:00:04.580Z,1.00
2022-09-01T10:02:33.663Z,1.00
2022-09-01T10:05:02.348Z,1.00
2022-09-01T10:07:31.683Z,1.00
2022-09-01T10:10:00.681Z,1.00
2022-09-01T10:12:29.410Z,1.00
2022-09-01T10:15:07.112Z,1.00
2022-09-01T10:17:43.612Z,1.00
2022-09-01T10:20:18.655Z,1.00
2022-09-01T10:22:48.404Z,1.00
2022-09-01T10:25:18.105Z,1.00
2022-09-01T10:27:47.484Z,1.00
2022-09-01T10:30:19.619Z,1.00
2022-09-01T10:32:55.050Z,1.00
2022-09-01T10:35:32.689Z,1.00
2022-09-01T10:38:01.223Z,1.00
2022-09-01T10:40:32.547Z,1.00
2022-09-01T10:43:00.932Z,1.00
2022-09-01T10:45:33.749Z,1.00
2022-09-01T10:48:30.459Z,1.00
2022-09-01T10:51:18.241Z,1.00
2022-09-01T10:53:47.048Z,1.00
2022-09-01T10:56:28.166Z,1.00
2022-09-01T11:01:49.890Z,1.00
2022-09-01T11:04:21.085Z,1.00
2022-09-01T11:09:39.027Z,1.00
2022-09-01T11:12:10.107Z,1.00
2022-09-01T11:14:57.250Z,1.00
2022-09-01T11:17:30.027Z,1.00
2022-09-01T11:19:59.629Z,1.00
2022-09-01T11:22:26.624Z,1.00
2022-09-01T11:25:12.154Z,1.00
2022-09-01T11:27:48.179Z,1.00
2022-09-01T11:30:22.384Z,1.00
2022-09-01T11:32:52.612Z,1.00
2022-09-01T11:35:21.593Z,1.00
2022-09-01T11:37:48.804Z,1.00
2022-09-01T11:40:21.612Z,1.00
2022-09-01T11:42:49.083Z,1.00
2022-09-01T11:45:38.074Z,1.00
2022-09-01T11:48:09.503Z,1.00
2022-09-01T11:50:37.390Z,1.00
2022-09-01T11:53:06.697Z,1.00
2022-09-01T11:55:35.629Z,1.00
2022-09-01T11:58:02.916Z,1.00
2022-09-01T12:00:38.434Z,1.00
2022-09-01T12:03:26.644Z,1.00
2022-09-01T12:06:04.137Z,1.00
2022-09-01T12:08:33.090Z,1.00
2022-09-01T12:11:04.270Z,1.00
2022-09-01T12:13:30.979Z,1.00
2022-09-01T12:16:18.366Z,1.00
2022-09-01T12:18:51.317Z,1.00
2022-09-01T12:21:23.068Z,1.00
2022-09-01T12:23:49.863Z,1.00
2022-09-01T12:26:18.919Z,1.00
2022-09-01T12:28:46.383Z,1.00
2022-09-01T12:31:15.091Z,1.00
2022-09-01T12:33:45.348Z,1.00
2022-09-01T12:36:21.726Z,1.00
2022-09-01T12:38:48.574Z,1.00
2022-09-01T12:41:35.189Z,1.00
2022-09-01T12:44:20.959Z,1.00
2022-09-01T12:46:47.564Z,1.00
2022-09-01T12:49:18.601Z,1.00
2022-09-01T12:51:47.701Z,1.00
2022-09-01T12:54:15.028Z,1.00
2022-09-01T12:56:47.777Z,1.00
2022-09-01T12:59:35.786Z,1.00
2022-09-01T13:02:22.537Z,1.00
2022-09-01T13:04:49.625Z,1.00
2022-09-01T13:07:16.171Z,1.00
2022-09-01T13:09:42.869Z,1.00
2022-09-01T13:12:10.605Z,1.00
2022-09-01T13:14:37.275Z,1.00
2022-09-01T13:17:04.263Z,1.00
2022-09-01T13:19:30.945Z,1.00
2022-09-01T13:21:57.631Z,1.00
2022-09-01T13:24:28.047Z,1.00
2022-09-01T13:29:43.903Z,1.00
2022-09-01T13:32:19.886Z,1.00
2022-09-01T13:34:48.600Z,1.00
2022-09-01T13:37:17.327Z,1.00
2022-09-01T13:39:43.901Z,1.00
2022-09-01T13:42:10.464Z,1.00
2022-09-01T13:44:37.046Z,1.00
2022-09-01T13:50:07.528Z,1.00
2022-09-01T13:52:35.089Z,1.00
2022-09-01T13:55:01.759Z,1.00
2022-09-01T13:57:28.374Z,1.00
2022-09-01T14:00:02.998Z,1.00
2022-09-01T14:02:29.806Z,1.00
2022-09-01T14:04:56.567Z,1.00
2022-09-01T14:07:23.236Z,1.00
2022-09-01T14:09:49.803Z,1.00
2022-09-01T14:12:16.421Z,1.00
2022-09-01T14:17:29.742Z,1.00
2022-09-01T14:19:57.483Z,1.00
2022-09-01T14:22:24.127Z,1.00
2022-09-01T14:24:50.701Z,1.00
2022-09-01T14:27:17.320Z,1.00
2022-09-01T14:32:14.056Z,1.00
2022-09-01T14:34:40.708Z,1.00
2022-09-01T14:37:07.279Z,1.00
2022-09-01T14:39:33.979Z,1.00
2022-09-01T14:42:00.612Z,1.00
2022-09-01T14:44:27.223Z,1.00
2022-09-01T14:46:54.498Z,1.00
2022-09-01T14:49:22.486Z,1.00
2022-09-01T14:54:36.992Z,1.00
2022-09-01T14:59:50.730Z,1.00
2022-09-01T15:02:19.402Z,1.00
2022-09-01T15:04:46.040Z,1.00
2022-09-01T15:07:13.454Z,1.00
2022-09-01T15:09:40.048Z,1.00
2022-09-01T15:12:06.770Z,1.00
2022-09-01T15:14:33.438Z,1.00
2022-09-01T15:17:00.905Z,1.00
2022-09-01T15:19:27.550Z,1.00
2022-09-01T15:21:54.128Z,1.00
2022-09-01T15:24:21.213Z,1.00
2022-09-01T15:26:47.800Z,1.00
2022-09-01T15:29:15.087Z,1.00
2022-09-01T15:31:42.595Z,1.00
2022-09-01T15:34:09.645Z,1.00
2022-09-01T15:36:39.881Z,1.00
2022-09-01T15:39:08.018Z,1.00
2022-09-01T15:41:34.959Z,1.00
2022-09-01T15:44:02.411Z,1.00
2022-09-01T15:46:32.745Z,1.00
2022-09-01T15:49:00.443Z,1.00
2022-09-01T15:51:38.579Z,1.00
2022-09-01T15:54:06.565Z,1.00
2022-09-01T15:56:33.207Z,1.00
2022-09-01T15:59:01.582Z,1.00
2022-09-01T16:01:29.538Z,1.00
2022-09-01T16:03:56.449Z,1.00
2022-09-01T16:06:23.518Z,1.00
2022-09-01T16:08:50.481Z,1.00
2022-09-01T16:11:17.059Z,1.00
2022-09-01T16:13:43.631Z,1.00
2022-09-01T16:16:10.235Z,1.00
2022-09-01T16:18:45.360Z,1.00
2022-09-01T16:21:34.758Z,1.00
2022-09-01T16:24:07.827Z,1.00
2022-09-01T16:26:35.584Z,1.00
2022-09-01T16:29:07.711Z,1.00
2022-09-01T16:31:34.344Z,1.00
2022-09-01T16:34:07.238Z,1.00
2022-09-01T16:36:34.650Z,1.00
2022-09-01T16:39:13.011Z,1.00
2022-09-01T16:42:01.190Z,1.00
2022-09-01T16:44:43.314Z,1.00
2022-09-01T16:47:16.088Z,1.00
2022-09-01T16:49:45.760Z,1.00
2022-09-01T16:52:19.923Z,1.00
2022-09-01T16:55:05.508Z,1.00
2022-09-01T16:57:32.618Z,1.00
2022-09-01T17:00:00.623Z,1.00
2022-09-01T17:02:35.864Z,1.00
2022-09-01T17:05:12.803Z,1.00
2022-09-01T17:07:47.096Z,1.00
2022-09-01T17:10:16.805Z,1.00
2022-09-01T17:12:51.812Z,1.00
2022-09-01T17:15:31.610Z,1.00
2022-09-01T17:18:22.984Z,1.00
2022-09-01T17:20:58.340Z,1.00
2022-09-01T17:23:28.387Z,1.00
2022-09-01T17:25:58.842Z,1.00
2022-09-01T17:28:45.903Z,1.00
2022-09-01T17:31:14.589Z,1.00
2022-09-01T17:33:41.234Z,1.00
2022-09-01T17:36:31.392Z,1.00
2022-09-01T17:39:14.120Z,1.00
2022-09-01T17:41:47.031Z,1.00
2022-09-01T17:44:29.786Z,1.00
2022-09-01T17:47:01.954Z,1.00
2022-09-01T17:49:33.281Z,1.00
2022-09-01T17:52:15.171Z,1.00
2022-09-01T17:54:41.792Z,1.00
2022-09-01T17:57:26.717Z,1.00
2022-09-01T17:59:59.590Z,1.00
2022-09-01T18:02:29.025Z,1.00
2022-09-01T18:05:04.538Z,1.00
2022-09-01T18:07:39.622Z,1.00
2022-09-01T18:10:11.778Z,1.00
2022-09-01T18:12:39.698Z,1.00
2022-09-01T18:15:14.463Z,1.00
2022-09-01T18:17:40.978Z,1.00
2022-09-01T18:20:24.401Z,1.00
2022-09-01T18:23:11.118Z,1.00
2022-09-01T18:25:39.727Z,1.00
2022-09-01T18:28:06.496Z,1.00
2022-09-01T18:30:59.399Z,1.00
2022-09-01T18:33:32.915Z,1.00
2022-09-01T18:36:03.683Z,1.00
2022-09-01T18:38:49.265Z,1.00
2022-09-01T18:41:34.513Z,1.00
2022-09-01T18:44:37.179Z,1.00
2022-09-01T18:47:08.321Z,1.00
2022-09-01T18:49:53.484Z,1.00
2022-09-01T18:52:28.425Z,1.00
2022-09-01T18:55:13.807Z,1.00
2022-09-01T18:57:41.497Z,1.00
2022-09-01T19:00:17.827Z,1.00
2022-09-01T19:02:51.643Z,1.00
2022-09-01T19:05:38.432Z,1.00
2022-09-01T19:08:27.312Z,1.00
2022-09-01T19:11:01.311Z,1.00
2022-09-01T19:13:39.490Z,1.00
2022-09-01T19:16:13.681Z,1.00
2022-09-01T19:18:45.413Z,1.00
2022-09-01T19:21:21.246Z,1.00
2022-09-01T19:23:59.294Z,1.00
2022-09-01T19:26:26.339Z,1.00
2022-09-01T19:29:06.458Z,1.00
2022-09-01T19:31:34.617Z,1.00
2022-09-01T19:34:05.200Z,1.00
2022-09-01T19:37:04.089Z,1.00
2022-09-01T19:39:32.766Z,1.00
2022-09-01T19:42:03.538Z,1.00
2022-09-01T19:44:30.115Z,1.00
2022-09-01T19:47:00.840Z,1.00
2022-09-01T19:49:39.948Z,1.00
2022-09-01T19:52:06.609Z,1.00
2022-09-01T19:54:36.178Z,1.00
2022-09-01T19:57:09.615Z,1.00
2022-09-01T19:59:48.439Z,1.00
2022-09-01T20:02:23.259Z,1.00
2022-09-01T20:04:57.132Z,1.00
2022-09-01T20:07:31.009Z,1.00
2022-09-01T20:10:07.338Z,1.00
2022-09-01T20:12:40.952Z,1.00
2022-09-01T20:15:10.952Z,1.00
2022-09-01T20:17:48.142Z,1.00
2022-09-01T20:20:17.641Z,1.00
2022-09-01T20:22:50.060Z,1.00
2022-09-01T20:25:18.866Z,1.00
2022-09-01T20:27:48.316Z,1.00
2022-09-01T20:30:18.083Z,1.00
2022-09-01T20:32:45.616Z,1.00
2022-09-01T20:35:14.377Z,1.00
2022-09-01T20:37:46.425Z,1.00
2022-09-01T20:40:27.579Z,1.00
2022-09-01T20:42:54.206Z,1.00
2022-09-01T20:45:22.850Z,1.00
2022-09-01T20:47:55.338Z,1.00
2022-09-01T20:50:45.070Z,1.00
2022-09-01T20:53:14.564Z,1.00
2022-09-01T20:55:47.851Z,1.00
2022-09-01T20:58:25.413Z,1.00
2022-09-01T21:01:04.714Z,1.00
2022-09-01T21:03:42.843Z,1.00
2022-09-01T21:06:19.615Z,1.00
2022-09-01T21:08:56.575Z,1.00
2022-09-01T21:11:23.181Z,1.00
2022-09-01T21:14:14.099Z,1.00
2022-09-01T21:16:41.029Z,1.00
2022-09-01T21:19:26.647Z,1.00
2022-09-01T21:21:53.186Z,1.00
2022-09-01T21:24:20.570Z,1.00
2022-09-01T21:26:48.983Z,1.00
2022-09-01T21:29:18.288Z,1.00
2022-09-01T21:31:46.874Z,1.00
2022-09-01T21:34:16.815Z,1.00
2022-09-01T21:36:43.809Z,1.00
2022-09-01T21:39:10.499Z,1.10
2022-09-01T21:41:39.095Z,1.10
2022-09-01T21:44:05.880Z,1.20
2022-09-01T21:46:32.583Z,1.00
2022-09-01T21:48:59.370Z,3.10
2022-09-01T21:51:25.936Z,1.50
2022-09-01T21:53:52.597Z,2.10
2022-09-01T21:56:19.250Z,2.00
2022-09-01T21:58:52.540Z,1.70
2022-09-01T22:01:19.188Z,2.00
2022-09-01T22:03:45.864Z,2.30
2022-09-01T22:06:12.732Z,3.10
2022-09-01T22:08:39.487Z,2.30
2022-09-01T22:11:09.789Z,2.40
2022-09-01T22:13:36.767Z,2.50
2022-09-01T22:16:03.724Z,1.90
2022-09-01T22:18:30.563Z,2.90
2022-09-01T22:21:07.542Z,4.20
2022-09-01T22:23:34.396Z,4.80
2022-09-01T22:26:01.057Z,4.80
2022-09-01T22:28:27.680Z,4.80
2022-09-01T22:30:54.282Z,4.80
2022-09-01T22:33:22.471Z,4.80
2022-09-01T22:35:51.051Z,4.70
2022-09-01T22:38:20.202Z,4.60
2022-09-01T22:40:52.032Z,4.60
2022-09-01T22:43:19.065Z,4.60
2022-09-01T22:45:46.570Z,5.40
2022-09-01T22:48:13.814Z,4.60
2022-09-01T22:50:41.933Z,7.20
2022-09-01T22:53:09.350Z,7.80
2022-09-01T22:55:37.006Z,7.10
2022-09-01T22:58:03.907Z,8.60
2022-09-01T23:00:30.502Z,9.40
2022-09-01T23:02:58.855Z,9.40
2022-09-01T23:05:25.575Z,9.30
2022-09-01T23:07:52.874Z,10.30
2022-09-01T23:10:19.542Z,11.50
2022-09-01T23:12:46.111Z,12.30
2022-09-01T23:15:12.706Z,14.00
2022-09-01T23:17:39.653Z,14.00
2022-09-01T23:20:07.692Z,13.60
2022-09-01T23:22:34.381Z,13.90
2022-09-01T23:25:00.982Z,14.10
2022-09-01T23:27:27.677Z,15.10
2022-09-01T23:29:54.271Z,15.30
2022-09-01T23:32:20.903Z,14.40
2022-09-01T23:34:47.765Z,15.70
2022-09-01T23:37:14.354Z,15.10
2022-09-01T23:39:41.192Z,14.20
2022-09-01T23:42:08.010Z,14.60
2022-09-01T23:44:36.723Z,15.00
2022-09-01T23:47:03.397Z,16.40
2022-09-01T23:49:29.976Z,15.60
2022-09-01T23:51:56.540Z,15.60
2022-09-01T23:54:23.192Z,16.30
2022-09-01T23:56:49.896Z,18.20
2022-09-01T23:59:16.623Z,17.50
